createdAt,value
2023-03-29T00:02:14.886Z,15.32
2023-03-29T00:04:42.024Z,15.29
2023-03-29T00:07:09.627Z,15.29
2023-03-29T00:09:36.708Z,15.31
2023-03-29T00:12:03.649Z,15.28
2023-03-29T00:14:31.200Z,15.27
2023-03-29T00:16:59.284Z,15.27
2023-03-29T00:19:26.765Z,15.26
2023-03-29T00:21:54.039Z,15.27
2023-03-29T00:24:24.138Z,15.24
2023-03-29T00:26:50.983Z,15.25
2023-03-29T00:29:18.008Z,15.25
2023-03-29T00:31:51.541Z,15.23
2023-03-29T00:34:18.448Z,15.22
2023-03-29T00:36:45.322Z,15.24
2023-03-29T00:39:12.225Z,15.22
2023-03-29T00:41:39.072Z,15.21
2023-03-29T00:44:05.952Z,15.22
2023-03-29T00:46:35.217Z,15.21
2023-03-29T00:49:09.167Z,15.21
2023-03-29T00:51:38.524Z,15.20
2023-03-29T00:54:09.752Z,15.21
2023-03-29T00:56:40.287Z,15.18
2023-03-29T00:59:13.889Z,15.18
2023-03-29T01:01:48.621Z,15.15
2023-03-29T01:04:22.538Z,15.16
2023-03-29T01:07:13.842Z,15.13
2023-03-29T01:09:43.998Z,15.13
2023-03-29T01:12:17.769Z,15.12
2023-03-29T01:14:59.527Z,15.12
2023-03-29T01:17:26.461Z,15.10
2023-03-29T01:20:02.432Z,15.09
2023-03-29T01:22:58.696Z,15.08
2023-03-29T01:25:53.708Z,15.12
2023-03-29T01:28:28.698Z,15.10
2023-03-29T01:31:03.959Z,15.09
2023-03-29T01:33:38.834Z,15.10
2023-03-29T01:36:19.399Z,15.09
2023-03-29T01:38:53.130Z,15.06
2023-03-29T01:41:20.494Z,15.06
2023-03-29T01:43:56.998Z,15.05
2023-03-29T01:46:35.686Z,15.04
2023-03-29T01:49:12.661Z,15.05
2023-03-29T01:51:46.478Z,15.04
2023-03-29T01:54:20.275Z,15.03
2023-03-29T01:56:50.327Z,15.01
2023-03-29T01:59:23.285Z,15.00
2023-03-29T02:01:54.715Z,15.00
2023-03-29T02:04:29.489Z,14.98
2023-03-29T02:06:59.749Z,15.00
2023-03-29T02:09:27.714Z,14.98
2023-03-29T02:11:59.825Z,15.00
2023-03-29T02:14:27.278Z,14.97
2023-03-29T02:16:54.196Z,14.98
2023-03-29T02:19:24.283Z,14.97
2023-03-29T02:22:09.886Z,14.97
2023-03-29T02:24:39.352Z,14.96
2023-03-29T02:27:06.578Z,14.96
2023-03-29T02:29:33.863Z,14.97
2023-03-29T02:32:11.668Z,14.96
2023-03-29T02:34:51.245Z,14.95
2023-03-29T02:37:20.442Z,14.94
2023-03-29T02:39:50.149Z,14.95
2023-03-29T02:42:20.684Z,14.94
2023-03-29T02:44:52.262Z,14.90
2023-03-29T02:47:28.909Z,14.92
2023-03-29T02:49:56.022Z,14.92
2023-03-29T02:52:28.586Z,14.93
2023-03-29T02:54:56.489Z,14.89
2023-03-29T02:57:26.981Z,14.88
2023-03-29T02:59:57.242Z,14.90
2023-03-29T03:02:28.113Z,14.90
2023-03-29T03:04:55.283Z,14.91
2023-03-29T03:07:22.191Z,14.89
2023-03-29T03:09:49.302Z,14.91
2023-03-29T03:12:16.294Z,14.86
2023-03-29T03:14:43.518Z,14.86
2023-03-29T03:17:10.529Z,14.88
2023-03-29T03:19:37.701Z,14.86
2023-03-29T03:22:06.301Z,14.86
2023-03-29T03:24:33.126Z,14.85
2023-03-29T03:27:00.000Z,14.86
2023-03-29T03:29:28.583Z,14.86
2023-03-29T03:31:55.910Z,14.83
2023-03-29T03:34:23.292Z,14.81
2023-03-29T03:36:50.821Z,14.81
2023-03-29T03:39:17.828Z,14.82
2023-03-29T03:41:44.819Z,14.83
2023-03-29T03:44:12.269Z,14.80
2023-03-29T03:46:39.528Z,14.79
2023-03-29T03:49:06.535Z,14.79
2023-03-29T03:51:33.497Z,14.78
2023-03-29T03:54:00.658Z,14.79
2023-03-29T03:56:30.141Z,14.80
2023-03-29T03:58:57.638Z,14.78
2023-03-29T04:01:24.706Z,14.79
2023-03-29T04:03:51.606Z,14.75
2023-03-29T04:06:18.891Z,14.78
2023-03-29T04:08:46.024Z,14.78
2023-03-29T04:11:13.043Z,14.77
2023-03-29T04:13:40.179Z,14.75
2023-03-29T04:16:07.800Z,14.75
2023-03-29T04:18:34.803Z,14.73
2023-03-29T04:21:02.362Z,14.74
2023-03-29T04:23:29.519Z,14.75
2023-03-29T04:25:56.988Z,14.74
2023-03-29T04:28:24.023Z,14.73
2023-03-29T04:30:51.054Z,14.73
2023-03-29T04:33:18.142Z,14.70
2023-03-29T04:35:45.121Z,14.70
2023-03-29T04:38:12.134Z,14.72
2023-03-29T04:40:39.059Z,14.69
2023-03-29T04:43:06.542Z,14.70
2023-03-29T04:45:33.584Z,14.68
2023-03-29T04:48:00.535Z,14.68
2023-03-29T04:50:27.823Z,14.69
2023-03-29T04:52:54.858Z,14.69
2023-03-29T04:55:21.785Z,14.67
2023-03-29T04:57:49.051Z,14.67
2023-03-29T05:00:17.353Z,14.64
2023-03-29T05:02:48.102Z,14.64
2023-03-29T05:05:15.532Z,14.64
2023-03-29T05:07:42.435Z,14.63
2023-03-29T05:10:10.030Z,14.64
2023-03-29T05:12:37.574Z,14.63
2023-03-29T05:15:05.550Z,14.61
2023-03-29T05:17:32.705Z,14.61
2023-03-29T05:19:59.661Z,14.62
2023-03-29T05:22:26.961Z,14.62
2023-03-29T05:24:54.264Z,14.62
2023-03-29T05:27:24.197Z,14.61
2023-03-29T05:29:51.180Z,14.61
2023-03-29T05:32:18.011Z,14.58
2023-03-29T05:34:45.424Z,14.58
2023-03-29T05:37:13.597Z,14.60
2023-03-29T05:39:40.384Z,14.60
2023-03-29T05:42:07.219Z,14.58
2023-03-29T05:44:34.482Z,14.59
2023-03-29T05:47:01.656Z,14.58
2023-03-29T05:49:28.464Z,14.60
2023-03-29T05:51:57.666Z,14.59
2023-03-29T05:54:25.426Z,14.58
2023-03-29T05:56:52.570Z,14.61
2023-03-29T05:59:28.902Z,14.59
2023-03-29T06:02:18.021Z,14.58
2023-03-29T06:04:45.029Z,14.59
2023-03-29T06:07:12.822Z,14.59
2023-03-29T06:09:40.070Z,14.58
2023-03-29T06:12:07.787Z,14.60
2023-03-29T06:14:34.780Z,14.58
2023-03-29T06:17:02.113Z,14.59
2023-03-29T06:19:29.516Z,14.59
2023-03-29T06:21:56.530Z,14.59
2023-03-29T06:24:29.587Z,14.60
2023-03-29T06:26:56.712Z,14.58
2023-03-29T06:29:23.681Z,14.60
2023-03-29T06:31:51.007Z,14.60
2023-03-29T06:34:17.977Z,14.61
2023-03-29T06:36:46.122Z,14.59
2023-03-29T06:39:13.331Z,14.61
2023-03-29T06:41:40.220Z,14.58
2023-03-29T06:44:07.106Z,14.57
2023-03-29T06:46:34.429Z,14.59
2023-03-29T06:49:01.762Z,14.62
2023-03-29T06:51:29.382Z,14.61
2023-03-29T06:53:56.272Z,14.62
2023-03-29T06:56:24.075Z,14.61
2023-03-29T06:58:51.745Z,14.59
2023-03-29T07:01:18.795Z,14.59
2023-03-29T07:03:46.791Z,14.61
2023-03-29T07:06:15.230Z,14.61
2023-03-29T07:08:45.277Z,14.60
2023-03-29T07:11:14.472Z,14.62
2023-03-29T07:13:42.823Z,14.60
2023-03-29T07:16:14.234Z,14.61
2023-03-29T07:18:43.133Z,14.63
2023-03-29T07:21:12.655Z,14.65
2023-03-29T07:23:40.913Z,14.65
2023-03-29T07:26:08.402Z,14.66
2023-03-29T07:28:37.715Z,14.67
2023-03-29T07:31:11.188Z,14.67
2023-03-29T07:33:39.468Z,14.68
2023-03-29T07:36:07.141Z,14.70
2023-03-29T07:38:34.399Z,14.71
2023-03-29T07:41:06.981Z,14.71
2023-03-29T07:43:34.866Z,14.72
2023-03-29T07:46:04.200Z,14.73
2023-03-29T07:48:32.100Z,14.74
2023-03-29T07:50:59.125Z,14.75
2023-03-29T07:53:29.925Z,14.76
2023-03-29T07:55:57.387Z,14.75
2023-03-29T07:58:24.534Z,14.79
2023-03-29T08:00:51.464Z,14.80
2023-03-29T08:03:18.402Z,14.83
2023-03-29T08:05:45.485Z,14.84
2023-03-29T08:08:14.421Z,14.84
2023-03-29T08:10:44.968Z,14.85
2023-03-29T08:13:12.272Z,14.84
2023-03-29T08:15:40.305Z,14.85
2023-03-29T08:18:08.394Z,14.86
2023-03-29T08:20:35.641Z,14.87
2023-03-29T08:23:02.727Z,14.88
2023-03-29T08:25:30.608Z,14.88
2023-03-29T08:27:57.675Z,14.88
2023-03-29T08:30:24.589Z,14.91
2023-03-29T08:32:54.459Z,14.92
2023-03-29T08:35:22.722Z,14.91
2023-03-29T08:37:49.931Z,14.88
2023-03-29T08:40:21.274Z,14.92
2023-03-29T08:43:14.886Z,14.93
2023-03-29T08:46:07.950Z,14.94
2023-03-29T08:49:03.272Z,14.95
2023-03-29T08:51:38.406Z,14.97
2023-03-29T08:54:06.834Z,15.00
2023-03-29T08:56:37.672Z,14.97
2023-03-29T08:59:12.801Z,15.00
2023-03-29T09:01:40.166Z,14.99
2023-03-29T09:04:13.322Z,15.01
2023-03-29T09:06:41.082Z,15.05
2023-03-29T09:09:18.139Z,15.07
2023-03-29T09:12:22.790Z,15.09
2023-03-29T09:14:59.131Z,15.06
2023-03-29T09:17:44.307Z,15.06
2023-03-29T09:20:52.742Z,15.02
2023-03-29T09:23:38.781Z,15.03
2023-03-29T09:26:16.680Z,15.05
2023-03-29T09:28:59.964Z,15.05
2023-03-29T09:31:35.397Z,15.10
2023-03-29T09:34:11.021Z,15.14
2023-03-29T09:36:54.157Z,15.15
2023-03-29T09:39:22.975Z,15.13
2023-03-29T09:41:57.131Z,15.15
2023-03-29T09:44:31.610Z,15.13
2023-03-29T09:47:09.522Z,15.16
2023-03-29T09:49:40.548Z,15.15
2023-03-29T09:52:14.194Z,15.16
2023-03-29T09:54:41.582Z,15.17
2023-03-29T09:57:17.611Z,15.17
2023-03-29T09:59:47.018Z,15.17
2023-03-29T10:02:15.198Z,15.15
2023-03-29T10:04:43.202Z,15.15
2023-03-29T10:07:18.560Z,15.19
2023-03-29T10:09:46.863Z,15.23
2023-03-29T10:12:14.345Z,15.24
2023-03-29T10:14:45.544Z,15.27
2023-03-29T10:17:26.877Z,15.27
2023-03-29T10:19:58.599Z,15.32
2023-03-29T10:22:35.512Z,15.38
2023-03-29T10:25:02.664Z,15.33
2023-03-29T10:27:32.324Z,15.33
2023-03-29T10:30:01.375Z,15.38
2023-03-29T10:32:35.041Z,15.46
2023-03-29T10:35:08.518Z,15.47
2023-03-29T10:37:35.597Z,15.47
2023-03-29T10:40:02.668Z,15.44
2023-03-29T10:42:29.659Z,15.51
2023-03-29T10:45:00.456Z,15.51
2023-03-29T10:47:34.541Z,15.56
2023-03-29T10:50:02.071Z,15.59
2023-03-29T10:52:30.342Z,15.62
2023-03-29T10:54:59.460Z,15.64
2023-03-29T10:57:53.479Z,15.61
2023-03-29T11:00:27.300Z,15.61
2023-03-29T11:03:17.653Z,15.62
2023-03-29T11:05:53.019Z,15.67
2023-03-29T11:08:47.331Z,15.72
2023-03-29T11:11:44.492Z,15.73
2023-03-29T11:14:28.152Z,15.74
2023-03-29T11:17:16.759Z,15.75
2023-03-29T11:20:16.764Z,15.75
2023-03-29T11:22:53.497Z,15.78
2023-03-29T11:25:29.078Z,15.81
2023-03-29T11:28:17.452Z,15.85
2023-03-29T11:31:11.906Z,15.90
2023-03-29T11:33:58.075Z,15.92
2023-03-29T11:36:41.920Z,15.96
2023-03-29T11:39:14.911Z,16.00
2023-03-29T11:41:46.733Z,16.02
2023-03-29T11:44:31.987Z,15.99
2023-03-29T11:47:05.650Z,15.97
2023-03-29T11:49:49.467Z,16.01
2023-03-29T11:52:22.846Z,16.06
2023-03-29T11:54:56.594Z,16.13
2023-03-29T11:57:31.305Z,16.16
2023-03-29T12:00:07.441Z,16.24
2023-03-29T12:02:42.684Z,16.24
2023-03-29T12:05:23.313Z,16.25
2023-03-29T12:07:56.365Z,16.28
2023-03-29T12:10:31.568Z,16.37
2023-03-29T12:13:09.777Z,16.47
2023-03-29T12:15:44.337Z,16.54
2023-03-29T12:18:27.152Z,16.54
2023-03-29T12:21:00.157Z,16.59
2023-03-29T12:23:31.794Z,16.61
2023-03-29T12:26:04.622Z,16.60
2023-03-29T12:28:54.801Z,16.54
2023-03-29T12:31:33.183Z,16.55
2023-03-29T12:34:13.612Z,16.58
2023-03-29T12:36:48.842Z,16.54
2023-03-29T12:39:18.994Z,16.53
2023-03-29T12:41:49.266Z,16.51
2023-03-29T12:44:20.769Z,16.50
2023-03-29T12:46:52.750Z,16.46
2023-03-29T12:49:38.810Z,16.40
2023-03-29T12:52:23.985Z,16.37
2023-03-29T12:54:57.278Z,16.35
2023-03-29T12:58:04.914Z,16.34
2023-03-29T13:00:32.736Z,16.37
2023-03-29T13:03:03.933Z,16.42
2023-03-29T13:05:35.291Z,16.51
2023-03-29T13:08:22.377Z,16.61
2023-03-29T13:10:55.012Z,16.71
2023-03-29T13:13:28.277Z,16.79
2023-03-29T13:16:17.300Z,16.84
2023-03-29T13:19:15.508Z,16.82
2023-03-29T13:21:51.769Z,16.86
2023-03-29T13:24:32.272Z,16.89
2023-03-29T13:27:13.121Z,16.99
2023-03-29T13:30:06.654Z,16.99
2023-03-29T13:32:41.251Z,17.02
2023-03-29T13:35:35.609Z,17.09
2023-03-29T13:38:18.340Z,17.16
2023-03-29T13:40:45.042Z,17.17
2023-03-29T13:43:18.915Z,17.07
2023-03-29T13:45:52.292Z,16.99
2023-03-29T13:48:35.886Z,16.96
2023-03-29T13:51:19.883Z,16.90
2023-03-29T13:54:02.535Z,16.84
2023-03-29T13:56:37.455Z,16.84
2023-03-29T13:59:15.953Z,16.83
2023-03-29T14:01:45.962Z,16.84
2023-03-29T14:04:19.527Z,16.84
2023-03-29T14:06:52.947Z,16.85
2023-03-29T14:09:23.506Z,16.86
2023-03-29T14:11:51.816Z,16.86
2023-03-29T14:14:24.138Z,16.86
2023-03-29T14:16:51.366Z,16.88
2023-03-29T14:19:32.037Z,16.89
2023-03-29T14:22:03.181Z,16.89
2023-03-29T14:24:41.216Z,16.91
2023-03-29T14:27:12.195Z,16.91
2023-03-29T14:29:39.034Z,16.90
2023-03-29T14:32:11.626Z,16.90
2023-03-29T14:34:39.582Z,17.00
2023-03-29T14:37:09.262Z,17.09
2023-03-29T14:39:36.787Z,17.12
2023-03-29T14:42:03.812Z,17.17
2023-03-29T14:44:33.351Z,17.23
2023-03-29T14:47:03.132Z,17.26
2023-03-29T14:49:30.372Z,17.32
2023-03-29T14:51:57.431Z,17.58
2023-03-29T14:54:27.619Z,17.65
2023-03-29T14:56:54.853Z,17.63
2023-03-29T14:59:42.444Z,17.47
2023-03-29T15:02:27.278Z,17.46
2023-03-29T15:04:56.632Z,17.49
2023-03-29T15:07:25.730Z,17.42
2023-03-29T15:09:53.537Z,17.47
2023-03-29T15:12:20.645Z,17.43
2023-03-29T15:14:51.449Z,17.40
2023-03-29T15:17:24.027Z,17.38
2023-03-29T15:20:07.467Z,17.30
2023-03-29T15:22:34.659Z,17.28
2023-03-29T15:25:02.107Z,17.25
2023-03-29T15:27:41.860Z,17.26
2023-03-29T15:30:15.068Z,17.29
2023-03-29T15:32:42.110Z,17.33
2023-03-29T15:35:23.498Z,17.40
2023-03-29T15:37:52.632Z,17.50
2023-03-29T15:40:25.424Z,17.51
2023-03-29T15:42:54.520Z,17.54
2023-03-29T15:45:22.402Z,17.55
2023-03-29T15:47:49.332Z,17.53
2023-03-29T15:50:16.236Z,17.49
2023-03-29T15:52:43.077Z,17.49
2023-03-29T15:55:10.651Z,17.48
2023-03-29T15:57:39.856Z,17.45
2023-03-29T16:00:13.347Z,17.41
2023-03-29T16:02:41.202Z,17.40
2023-03-29T16:05:10.788Z,17.43
2023-03-29T16:07:37.744Z,17.48
2023-03-29T16:10:04.854Z,17.55
2023-03-29T16:12:31.648Z,17.56
2023-03-29T16:14:58.533Z,17.56
2023-03-29T16:17:25.265Z,17.53
2023-03-29T16:19:52.061Z,17.47
2023-03-29T16:22:18.755Z,17.43
2023-03-29T16:24:45.787Z,17.40
2023-03-29T16:27:12.581Z,17.38
2023-03-29T16:29:39.392Z,17.37
2023-03-29T16:32:07.266Z,17.36
2023-03-29T16:34:36.166Z,17.35
2023-03-29T16:37:03.046Z,17.36
2023-03-29T16:39:29.777Z,17.36
2023-03-29T16:41:56.723Z,17.36
2023-03-29T16:44:24.848Z,17.33
2023-03-29T16:46:54.439Z,17.32
2023-03-29T16:49:21.745Z,17.32
2023-03-29T16:51:48.818Z,17.29
2023-03-29T16:54:17.535Z,17.29
2023-03-29T16:56:47.355Z,17.29
2023-03-29T16:59:15.553Z,17.27
2023-03-29T17:01:43.107Z,17.26
2023-03-29T17:04:10.283Z,17.24
2023-03-29T17:06:37.266Z,17.23
2023-03-29T17:09:05.239Z,17.23
2023-03-29T17:11:32.172Z,17.22
2023-03-29T17:13:59.223Z,17.21
2023-03-29T17:16:26.286Z,17.20
2023-03-29T17:18:53.149Z,17.19
2023-03-29T17:21:20.507Z,17.19
2023-03-29T17:23:47.192Z,17.17
2023-03-29T17:26:14.365Z,17.16
2023-03-29T17:28:41.510Z,17.17
2023-03-29T17:31:08.359Z,17.16
2023-03-29T17:33:36.231Z,17.16
2023-03-29T17:36:05.131Z,17.16
2023-03-29T17:38:34.350Z,17.14
2023-03-29T17:41:01.701Z,17.14
2023-03-29T17:43:28.897Z,17.12
2023-03-29T17:45:55.773Z,17.13
2023-03-29T17:48:24.043Z,17.13
2023-03-29T17:50:50.845Z,17.12
2023-03-29T17:53:17.635Z,17.11
2023-03-29T17:55:44.590Z,17.11
2023-03-29T17:58:11.382Z,17.09
2023-03-29T18:00:38.148Z,17.08
2023-03-29T18:03:05.880Z,17.09
2023-03-29T18:05:33.799Z,17.09
2023-03-29T18:08:00.573Z,17.08
2023-03-29T18:10:27.469Z,17.08
2023-03-29T18:12:54.792Z,17.09
2023-03-29T18:15:21.583Z,17.09
2023-03-29T18:17:48.349Z,17.09
2023-03-29T18:20:16.360Z,17.07
2023-03-29T18:22:44.698Z,17.06
2023-03-29T18:25:11.505Z,17.07
2023-03-29T18:27:39.487Z,17.06
2023-03-29T18:30:09.048Z,17.06
2023-03-29T18:32:39.094Z,17.07
2023-03-29T18:35:06.509Z,17.06
2023-03-29T18:37:33.242Z,17.05
2023-03-29T18:40:01.098Z,17.05
2023-03-29T18:42:27.863Z,17.06
2023-03-29T18:44:54.594Z,17.06
2023-03-29T18:47:21.441Z,17.04
2023-03-29T18:49:48.235Z,17.05
2023-03-29T18:52:15.002Z,17.05
2023-03-29T18:54:42.006Z,17.04
2023-03-29T18:57:09.085Z,17.04
2023-03-29T18:59:38.787Z,17.05
2023-03-29T19:02:05.593Z,17.05
2023-03-29T19:04:32.385Z,17.05
2023-03-29T19:07:01.479Z,17.04
2023-03-29T19:09:28.519Z,17.06
2023-03-29T19:11:55.604Z,17.05
2023-03-29T19:14:26.317Z,17.04
2023-03-29T19:16:54.048Z,17.04
2023-03-29T19:19:22.204Z,17.02
2023-03-29T19:21:51.154Z,17.03
2023-03-29T19:24:18.705Z,17.03
2023-03-29T19:26:48.059Z,17.02
2023-03-29T19:29:15.228Z,17.02
2023-03-29T19:31:42.025Z,17.03
2023-03-29T19:34:11.103Z,17.04
2023-03-29T19:36:38.806Z,17.02
2023-03-29T19:39:06.339Z,17.03
2023-03-29T19:41:33.365Z,17.04
2023-03-29T19:44:00.166Z,17.04
2023-03-29T19:46:28.452Z,17.02
2023-03-29T19:48:56.334Z,17.04
2023-03-29T19:51:23.925Z,17.03
2023-03-29T19:53:50.719Z,17.03
2023-03-29T19:56:17.980Z,17.02
2023-03-29T19:58:44.794Z,17.02
2023-03-29T20:01:11.587Z,17.02
2023-03-29T20:03:39.494Z,17.02
2023-03-29T20:06:10.434Z,17.01
2023-03-29T20:08:39.045Z,17.02
2023-03-29T20:11:10.633Z,17.00
2023-03-29T20:13:39.331Z,17.00
2023-03-29T20:16:08.493Z,17.01
2023-03-29T20:18:35.307Z,17.00
2023-03-29T20:21:02.364Z,17.00
2023-03-29T20:23:30.121Z,17.01
2023-03-29T20:25:57.262Z,16.98
2023-03-29T20:28:24.743Z,16.99
2023-03-29T20:30:52.529Z,16.99
2023-03-29T20:33:20.864Z,16.99
2023-03-29T20:35:49.461Z,16.99
2023-03-29T20:38:16.341Z,16.99
2023-03-29T20:40:43.090Z,16.98
2023-03-29T20:43:13.715Z,16.98
2023-03-29T20:45:52.547Z,16.97
2023-03-29T20:48:22.410Z,16.97
2023-03-29T20:50:49.794Z,16.98
2023-03-29T20:53:16.589Z,16.98
2023-03-29T20:55:43.315Z,16.97
2023-03-29T20:58:10.188Z,16.96
2023-03-29T21:00:37.824Z,16.96
2023-03-29T21:03:04.839Z,16.98
2023-03-29T21:05:33.335Z,16.95
2023-03-29T21:08:00.167Z,16.96
2023-03-29T21:10:28.310Z,16.96
2023-03-29T21:13:00.440Z,16.95
2023-03-29T21:15:30.824Z,16.95
2023-03-29T21:17:58.282Z,16.93
2023-03-29T21:20:25.750Z,16.94
2023-03-29T21:22:52.598Z,16.95
2023-03-29T21:25:19.664Z,16.94
2023-03-29T21:27:46.471Z,16.92
2023-03-29T21:30:13.471Z,16.92
2023-03-29T21:32:40.659Z,16.93
2023-03-29T21:35:08.195Z,16.92
2023-03-29T21:37:34.932Z,16.92
2023-03-29T21:40:05.841Z,16.92
2023-03-29T21:42:35.985Z,16.92
2023-03-29T21:45:03.246Z,16.92
2023-03-29T21:47:30.032Z,16.92
2023-03-29T21:49:56.794Z,16.90
2023-03-29T21:52:23.561Z,16.91
2023-03-29T21:54:50.497Z,16.91
2023-03-29T21:57:17.348Z,16.90
2023-03-29T21:59:44.262Z,16.91
2023-03-29T22:02:11.423Z,16.90
2023-03-29T22:04:38.180Z,16.91
2023-03-29T22:07:06.114Z,16.89
2023-03-29T22:09:35.449Z,16.89
2023-03-29T22:12:02.995Z,16.88
2023-03-29T22:14:31.832Z,16.88
2023-03-29T22:16:58.629Z,16.87
2023-03-29T22:19:25.448Z,16.88
2023-03-29T22:21:52.275Z,16.87
2023-03-29T22:24:19.070Z,16.88
2023-03-29T22:26:46.133Z,16.87
2023-03-29T22:29:12.889Z,16.88
2023-03-29T22:31:39.735Z,16.87
2023-03-29T22:34:06.942Z,16.87
2023-03-29T22:36:33.911Z,16.86
2023-03-29T22:39:00.921Z,16.84
2023-03-29T22:41:28.400Z,16.86
2023-03-29T22:43:57.367Z,16.86
2023-03-29T22:46:24.770Z,16.86
2023-03-29T22:48:51.596Z,16.87
2023-03-29T22:51:19.001Z,16.86
2023-03-29T22:53:47.289Z,16.87
2023-03-29T22:56:16.013Z,16.86
2023-03-29T22:58:43.442Z,16.85
2023-03-29T23:01:10.338Z,16.85
2023-03-29T23:03:37.047Z,16.85
2023-03-29T23:06:03.994Z,16.85
2023-03-29T23:08:32.232Z,16.85
2023-03-29T23:10:59.781Z,16.84
2023-03-29T23:13:29.448Z,16.85
2023-03-29T23:15:59.349Z,16.85
2023-03-29T23:18:28.066Z,16.86
2023-03-29T23:20:56.696Z,16.83
2023-03-29T23:23:24.968Z,16.85
2023-03-29T23:25:53.129Z,16.84
2023-03-29T23:28:23.742Z,16.84
2023-03-29T23:31:00.612Z,16.83
2023-03-29T23:33:29.114Z,16.82
2023-03-29T23:35:55.889Z,16.83
2023-03-29T23:38:23.308Z,16.82
2023-03-29T23:40:59.283Z,16.82
2023-03-29T23:43:31.963Z,16.81
2023-03-29T23:46:01.243Z,16.84
2023-03-29T23:48:28.488Z,16.83
2023-03-29T23:50:58.547Z,16.81
2023-03-29T23:53:28.859Z,16.82
2023-03-29T23:56:01.570Z,16.80
2023-03-29T23:58:29.768Z,16.82
